Puerto Madryn, Argentina
Current Conditions -  °F | °C
As of 5:00 PM on Saturday 25 Oct 2014 (Local Time) from SAVC Reporting Station
Clear Clear  
Wind Chill: 82°   Ceiling: Unl
Heat Index: 82°   Visibility: 6mi
Dew Point: 23°   Wind: 22mph
Humidity: 11%   Direction: 290°WNW
Pressure: 29.53"   Gusts: NA
Location:  42.77°S, 65.05°W
Report Text: SAVC 252000Z 29019KT CAVOK 28/M05 Q1000
Loading
Personal Weather Stations






























Interactive Weather Map New forecast layout! Learn more

10-Day Weather Forecast

Advertisements
Track Severe Weather on mobile